createdAt,value
2017-03-14T07:20:45.559Z,1026.21
2017-03-14T07:21:45.583Z,1026.21
2017-03-14T07:22:45.610Z,1026.19
2017-03-14T07:23:45.634Z,1026.15
2017-03-14T07:24:45.660Z,1026.12
2017-03-14T07:25:45.687Z,1026.19
2017-03-14T07:26:45.711Z,1026.2
2017-03-14T07:27:45.741Z,1026.26
2017-03-14T07:28:45.767Z,1026.21
2017-03-14T07:29:45.796Z,1026.17
2017-03-14T07:30:45.819Z,1026.2
2017-03-14T07:31:45.848Z,1026.22
2017-03-14T07:32:45.877Z,1026.19
2017-03-14T07:33:45.901Z,1026.2
2017-03-14T07:34:45.930Z,1026.19
2017-03-14T07:35:45.955Z,1026.27
2017-03-14T07:36:45.979Z,1026.27
2017-03-14T07:37:46.008Z,1026.26
2017-03-14T07:38:46.033Z,1026.24
2017-03-14T07:39:46.062Z,1026.25
2017-03-14T07:40:46.086Z,1026.28
2017-03-14T07:41:46.104Z,1026.31
2017-03-14T07:42:46.142Z,1026.35
2017-03-14T07:43:46.167Z,1026.44
2017-03-14T07:44:46.197Z,1026.44
2017-03-14T07:45:46.225Z,1026.49
2017-03-14T07:46:46.251Z,1026.54
2017-03-14T07:47:46.277Z,1026.52
2017-03-14T07:48:46.306Z,1026.5
2017-03-14T07:49:46.331Z,1026.54
2017-03-14T07:50:46.361Z,1026.57
2017-03-14T07:51:46.387Z,1026.62
2017-03-14T07:52:46.404Z,1026.69
2017-03-14T07:53:46.437Z,1026.71
2017-03-14T07:54:46.466Z,1026.76
2017-03-14T07:55:46.496Z,1026.78
2017-03-14T07:56:46.526Z,1026.78
2017-03-14T07:57:46.546Z,1026.79
2017-03-14T07:58:46.576Z,1026.75
2017-03-14T07:59:46.600Z,1026.76
2017-03-14T08:00:46.729Z,1026.75
2017-03-14T08:01:46.654Z,1026.71
2017-03-14T08:02:46.681Z,1026.69
2017-03-14T08:03:46.707Z,1026.71
2017-03-14T08:04:46.735Z,1026.69
2017-03-14T08:05:46.761Z,1026.67
2017-03-14T08:06:46.795Z,1026.67
2017-03-14T08:07:46.805Z,1026.68
2017-03-14T08:08:46.846Z,1026.68
2017-03-14T08:09:46.873Z,1026.73
2017-03-14T08:10:46.903Z,1026.86
2017-03-14T08:11:46.927Z,1026.92
2017-03-14T08:12:46.954Z,1026.95
2017-03-14T08:13:46.982Z,1026.93
2017-03-14T08:14:47.010Z,1026.97
2017-03-14T08:15:47.034Z,1026.96
2017-03-14T08:16:47.064Z,1026.93
2017-03-14T08:17:47.088Z,1027
2017-03-14T08:18:47.114Z,1027.04
2017-03-14T08:19:47.142Z,1027.02
2017-03-14T08:20:47.170Z,1027.04
2017-03-14T08:21:47.200Z,1026.99
2017-03-14T08:22:47.225Z,1027.04
2017-03-14T08:23:47.252Z,1027.05
2017-03-14T08:24:47.281Z,1027.07
2017-03-14T08:25:47.311Z,1027.07
2017-03-14T08:26:47.331Z,1027.12
2017-03-14T08:27:47.357Z,1027.16
2017-03-14T08:28:47.389Z,1027.18
2017-03-14T08:29:47.415Z,1027.16
2017-03-14T08:30:47.447Z,1027.14
2017-03-14T08:31:47.472Z,1027.08
2017-03-14T08:32:47.483Z,1027.13
2017-03-14T08:33:47.525Z,1027.13
2017-03-14T08:34:47.554Z,1027.16
2017-03-14T08:35:47.597Z,1027.2
2017-03-14T08:36:47.608Z,1027.13
2017-03-14T08:37:47.624Z,1027.18
2017-03-14T08:38:47.662Z,1027.24
2017-03-14T08:39:47.689Z,1027.27
2017-03-14T08:40:47.718Z,1027.3
2017-03-14T08:41:47.744Z,1027.31
2017-03-14T08:42:47.771Z,1027.36
2017-03-14T08:43:47.797Z,1027.34
2017-03-14T08:44:47.826Z,1027.37
2017-03-14T08:45:47.856Z,1027.29
2017-03-14T08:46:47.883Z,1027.3
2017-03-14T08:47:47.904Z,1027.19
2017-03-14T08:48:47.932Z,1027.19
2017-03-14T08:49:47.961Z,1027.19
2017-03-14T08:50:47.988Z,1027.24
2017-03-14T08:51:48.019Z,1027.21
2017-03-14T08:52:48.043Z,1027.17
2017-03-14T08:53:48.074Z,1027.14
2017-03-14T08:54:48.098Z,1027.13
2017-03-14T08:55:48.131Z,1027.17
2017-03-14T08:56:48.155Z,1027.16
2017-03-14T08:57:48.184Z,1027.15
2017-03-14T08:58:48.209Z,1027.21
2017-03-14T08:59:48.239Z,1027.27
2017-03-14T09:00:48.268Z,1027.22
2017-03-14T09:01:48.293Z,1027.3
2017-03-14T09:02:48.319Z,1027.29
2017-03-14T09:03:48.348Z,1027.34
2017-03-14T09:04:48.376Z,1027.21
2017-03-14T09:05:48.408Z,1027.25
2017-03-14T09:06:48.434Z,1027.19
2017-03-14T09:07:48.459Z,1027.1
2017-03-14T09:08:48.489Z,1027.12
2017-03-14T09:09:48.521Z,1027.14
2017-03-14T09:10:48.554Z,1027.16
2017-03-14T09:11:48.574Z,1027.19
2017-03-14T09:12:48.607Z,1027.2
2017-03-14T09:13:48.633Z,1027.14
2017-03-14T09:14:48.664Z,1027.07
2017-03-14T09:15:48.691Z,1027.07
2017-03-14T09:16:48.721Z,1027.11
2017-03-14T09:17:48.753Z,1027.05
2017-03-14T09:18:48.780Z,1026.96
2017-03-14T09:19:48.810Z,1026.98
2017-03-14T09:20:48.838Z,1026.99
2017-03-14T09:21:48.866Z,1026.97
2017-03-14T09:22:48.899Z,1026.95
2017-03-14T09:23:48.927Z,1026.85
2017-03-14T09:24:48.956Z,1026.8
2017-03-14T09:25:48.982Z,1026.74
2017-03-14T09:26:49.013Z,1026.71
2017-03-14T09:27:49.041Z,1026.75
2017-03-14T09:28:49.077Z,1026.82
2017-03-14T09:29:49.104Z,1026.8
2017-03-14T09:30:49.134Z,1026.87
2017-03-14T09:31:49.164Z,1026.88
2017-03-14T09:32:49.196Z,1026.9
2017-03-14T09:33:49.229Z,1026.94
2017-03-14T09:34:49.254Z,1026.97
2017-03-14T09:35:49.281Z,1026.96
2017-03-14T09:36:49.316Z,1026.92
2017-03-14T09:37:49.346Z,1026.93
2017-03-14T09:38:49.369Z,1026.99
2017-03-14T09:39:49.405Z,1027
2017-03-14T09:40:49.432Z,1026.99
2017-03-14T09:41:49.462Z,1026.97
2017-03-14T09:42:49.496Z,1026.96
2017-03-14T09:43:49.522Z,1026.93
2017-03-14T09:44:49.551Z,1026.87
2017-03-14T09:45:49.585Z,1026.84
2017-03-14T09:46:49.618Z,1026.83
2017-03-14T09:47:49.646Z,1026.85
2017-03-14T09:48:49.672Z,1026.83
2017-03-14T09:49:49.703Z,1026.89
2017-03-14T09:50:49.735Z,1026.9
2017-03-14T09:51:49.793Z,1026.86
2017-03-14T09:52:49.792Z,1026.86
2017-03-14T09:53:49.823Z,1026.91
2017-03-14T09:54:49.854Z,1026.94
2017-03-14T09:55:49.885Z,1026.94
2017-03-14T09:56:49.917Z,1026.95
2017-03-14T09:57:49.946Z,1026.97
2017-03-14T09:58:49.977Z,1027
2017-03-14T09:59:50.006Z,1027.02
2017-03-14T10:00:50.035Z,1027.02
2017-03-14T10:01:50.063Z,1026.94
2017-03-14T10:02:50.095Z,1026.94
2017-03-14T10:03:50.127Z,1026.9
2017-03-14T10:04:50.158Z,1026.87
2017-03-14T10:05:50.185Z,1026.95
2017-03-14T10:06:50.213Z,1026.94
2017-03-14T10:07:50.247Z,1026.93
2017-03-14T10:08:50.277Z,1026.9
2017-03-14T10:09:50.305Z,1026.94
2017-03-14T10:10:50.336Z,1026.86
2017-03-14T10:11:50.363Z,1026.84
2017-03-14T10:12:50.397Z,1026.78
2017-03-14T10:13:50.428Z,1026.87
2017-03-14T10:14:50.457Z,1026.83
2017-03-14T10:15:50.489Z,1026.81
2017-03-14T10:16:50.519Z,1026.84
2017-03-14T10:17:50.553Z,1026.84
2017-03-14T10:18:50.577Z,1026.92
2017-03-14T10:19:50.609Z,1026.92
2017-03-14T10:20:50.642Z,1026.89
2017-03-14T10:21:50.674Z,1026.89
2017-03-14T10:22:50.701Z,1026.93
2017-03-14T10:23:50.731Z,1026.98
2017-03-14T10:24:50.762Z,1027.02
2017-03-14T10:25:50.790Z,1027.01
2017-03-14T10:26:50.823Z,1027.05
2017-03-14T10:27:50.854Z,1027.04
2017-03-14T10:28:50.882Z,1027.07
2017-03-14T10:29:50.915Z,1027.05
2017-03-14T10:30:50.945Z,1027.1
2017-03-14T10:31:50.975Z,1027.04
2017-03-14T10:32:51.008Z,1027.09
2017-03-14T10:33:51.036Z,1027.12
2017-03-14T10:34:51.063Z,1027.11
2017-03-14T10:35:51.096Z,1027.14
2017-03-14T10:36:51.124Z,1027.17
2017-03-14T10:37:51.158Z,1027.34
2017-03-14T10:38:51.186Z,1027.99
2017-03-14T10:39:51.217Z,1027.58
2017-03-14T10:40:51.249Z,1027.41
2017-03-14T10:41:51.266Z,1027.09
2017-03-14T10:42:51.309Z,1027.08
2017-03-14T10:43:51.340Z,1027.07
2017-03-14T10:44:51.370Z,1027.54
2017-03-14T10:45:51.400Z,1027.12
2017-03-14T10:46:51.431Z,1027.14
2017-03-14T10:47:51.466Z,1027.74
2017-03-14T10:48:51.494Z,1027.15
2017-03-14T10:49:51.524Z,1026.97
2017-03-14T10:50:51.562Z,1027.12
2017-03-14T10:51:51.594Z,1027.1
2017-03-14T10:52:51.619Z,1027.05
2017-03-14T10:53:51.654Z,1027.18
2017-03-14T10:54:51.688Z,1027.06
2017-03-14T10:55:51.715Z,1026.97
2017-03-14T10:56:51.745Z,1026.97
2017-03-14T10:57:51.777Z,1027.07
2017-03-14T10:58:51.809Z,1027.02
2017-03-14T10:59:51.840Z,1027
2017-03-14T11:00:51.873Z,1027.19
2017-03-14T11:01:51.904Z,1027.09
2017-03-14T11:02:51.938Z,1026.86
2017-03-14T11:03:51.970Z,1026.79
2017-03-14T11:04:52.002Z,1026.8
2017-03-14T11:05:52.034Z,1026.73
2017-03-14T11:06:52.066Z,1026.74
2017-03-14T11:07:52.105Z,1026.75
2017-03-14T11:08:52.138Z,1026.7
2017-03-14T11:09:52.165Z,1026.71
2017-03-14T11:10:52.195Z,1026.65
2017-03-14T11:11:52.229Z,1026.68
2017-03-14T11:12:52.263Z,1026.62
2017-03-14T11:13:52.292Z,1026.68
2017-03-14T11:14:52.328Z,1026.63
2017-03-14T11:15:52.459Z,1026.65
2017-03-14T11:16:52.390Z,1026.6
2017-03-14T11:17:52.421Z,1026.6
2017-03-14T11:18:52.458Z,1026.61
2017-03-14T11:19:52.486Z,1026.62
2017-03-14T11:20:52.519Z,1026.58
2017-03-14T11:21:52.554Z,1026.61
2017-03-14T11:22:52.586Z,1026.54
2017-03-14T11:23:52.615Z,1026.52
2017-03-14T11:24:52.649Z,1026.56
2017-03-14T11:25:52.666Z,1026.53
2017-03-14T11:26:52.717Z,1026.47
2017-03-14T11:27:52.742Z,1026.57
2017-03-14T11:28:52.768Z,1026.53
2017-03-14T11:29:52.806Z,1026.54
2017-03-14T11:30:52.844Z,1026.5
2017-03-14T11:31:52.872Z,1026.45
2017-03-14T11:32:52.901Z,1026.51
2017-03-14T11:33:52.932Z,1026.54
2017-03-14T11:34:52.966Z,1026.53
2017-03-14T11:35:52.984Z,1026.57
2017-03-14T11:36:53.030Z,1026.48
2017-03-14T11:37:53.064Z,1026.49
2017-03-14T11:38:53.094Z,1026.52
2017-03-14T11:39:53.123Z,1026.55
2017-03-14T11:40:53.162Z,1026.54
2017-03-14T11:41:53.187Z,1026.47
2017-03-14T11:42:53.220Z,1026.48
2017-03-14T11:43:53.253Z,1026.48
2017-03-14T11:44:53.270Z,1026.48
2017-03-14T11:45:53.317Z,1026.47
2017-03-14T11:46:53.348Z,1026.43
2017-03-14T11:47:53.381Z,1026.44
2017-03-14T11:48:53.409Z,1026.39
2017-03-14T11:49:53.444Z,1026.42
2017-03-14T11:50:53.478Z,1026.42
2017-03-14T11:51:53.509Z,1026.39
2017-03-14T11:52:53.538Z,1026.36
2017-03-14T11:53:53.573Z,1026.37
2017-03-14T11:54:53.604Z,1026.34
2017-03-14T11:55:53.621Z,1026.35
2017-03-14T11:56:53.669Z,1026.31
2017-03-14T11:57:53.701Z,1026.28
2017-03-14T11:58:53.732Z,1026.31
2017-03-14T11:59:53.765Z,1026.2
2017-03-14T12:00:53.792Z,1026.24
2017-03-14T12:01:53.824Z,1026.26
2017-03-14T12:02:53.860Z,1026.26
2017-03-14T12:03:53.881Z,1026.25
2017-03-14T12:04:53.921Z,1026.24
2017-03-14T12:05:53.972Z,1026.16
2017-03-14T12:06:53.988Z,1026.2
2017-03-14T12:07:54.019Z,1026.2
2017-03-14T12:08:54.046Z,1026.21
2017-03-14T12:09:54.088Z,1026.2
2017-03-14T12:10:54.095Z,1026.16
2017-03-14T12:11:54.139Z,1026.18
2017-03-14T12:12:54.378Z,1026.1
2017-03-14T12:13:54.215Z,1026.15
2017-03-14T12:14:54.234Z,1026.17
2017-03-14T12:15:54.274Z,1026.15
2017-03-14T12:16:54.299Z,1026.14
2017-03-14T12:17:54.325Z,1026.13
2017-03-14T12:18:54.359Z,1026.11
2017-03-14T12:19:54.392Z,1026.07
2017-03-14T12:20:54.420Z,1026.09
2017-03-14T12:21:54.458Z,1026.1
2017-03-14T12:22:54.486Z,1026.07
2017-03-14T12:23:54.518Z,1026
2017-03-14T12:24:54.547Z,1026.05
2017-03-14T12:25:54.574Z,1026.02
2017-03-14T12:26:54.597Z,1026.01
2017-03-14T12:27:54.643Z,1025.95
2017-03-14T12:28:54.668Z,1025.94
2017-03-14T12:29:54.704Z,1026
2017-03-14T12:30:54.733Z,1025.97
2017-03-14T12:31:54.767Z,1025.98
2017-03-14T12:32:54.799Z,1025.96
2017-03-14T12:33:54.825Z,1025.97
2017-03-14T12:34:54.859Z,1025.98
2017-03-14T12:35:54.891Z,1025.95
2017-03-14T12:36:54.922Z,1025.97
2017-03-14T12:37:54.956Z,1025.91
2017-03-14T12:38:54.992Z,1025.96
2017-03-14T12:39:55.019Z,1025.88
2017-03-14T12:40:55.047Z,1025.9
2017-03-14T12:41:55.084Z,1025.89
2017-03-14T12:42:55.110Z,1025.82
2017-03-14T12:43:55.140Z,1025.82
2017-03-14T12:44:55.171Z,1025.81
2017-03-14T12:45:55.206Z,1025.76
2017-03-14T12:46:55.233Z,1025.8
2017-03-14T12:47:55.268Z,1025.81
2017-03-14T12:48:55.300Z,1025.8
2017-03-14T12:49:55.332Z,1025.79
2017-03-14T12:50:55.347Z,1025.88
2017-03-14T12:51:55.387Z,1025.81
2017-03-14T12:52:55.430Z,1025.87
2017-03-14T12:53:55.464Z,1025.87
2017-03-14T12:54:55.491Z,1025.93
2017-03-14T12:55:55.524Z,1025.97
2017-03-14T12:56:55.554Z,1025.95
2017-03-14T12:57:55.590Z,1025.97
2017-03-14T12:58:55.618Z,1025.92
2017-03-14T12:59:55.649Z,1025.91
2017-03-14T13:00:55.682Z,1025.92
2017-03-14T13:01:55.711Z,1025.93
2017-03-14T13:02:55.743Z,1025.92
2017-03-14T13:03:55.775Z,1025.92
2017-03-14T13:04:55.810Z,1025.91
2017-03-14T13:05:55.838Z,1025.92
2017-03-14T13:06:55.881Z,1025.87
2017-03-14T13:07:55.890Z,1025.86
2017-03-14T13:08:55.937Z,1025.9
2017-03-14T13:09:55.967Z,1025.88
2017-03-14T13:10:55.994Z,1025.86
2017-03-14T13:11:56.028Z,1025.88
2017-03-14T13:12:56.064Z,1025.84
2017-03-14T13:13:56.093Z,1025.87
2017-03-14T13:14:56.126Z,1025.85
2017-03-14T13:15:56.157Z,1025.83
2017-03-14T13:16:56.190Z,1025.85
2017-03-14T13:17:56.223Z,1025.79
2017-03-14T13:18:56.253Z,1025.78
2017-03-14T13:19:56.287Z,1025.73
2017-03-14T13:20:56.317Z,1025.77
2017-03-14T13:21:56.348Z,1025.74
2017-03-14T13:22:56.367Z,1025.71
2017-03-14T13:23:56.413Z,1025.73
2017-03-14T13:24:56.442Z,1025.67
2017-03-14T13:25:56.481Z,1025.71
2017-03-14T13:26:56.506Z,1025.67
2017-03-14T13:27:56.541Z,1025.69
2017-03-14T13:28:56.572Z,1025.7
2017-03-14T13:29:56.603Z,1025.71
2017-03-14T13:30:56.635Z,1025.7
2017-03-14T13:31:56.668Z,1025.73
2017-03-14T13:32:56.685Z,1025.69
2017-03-14T13:33:56.731Z,1025.69
2017-03-14T13:34:56.764Z,1025.65
2017-03-14T13:35:56.787Z,1025.68
2017-03-14T13:36:56.827Z,1025.66
2017-03-14T13:37:56.862Z,1025.62
2017-03-14T13:38:56.891Z,1025.57
2017-03-14T13:39:56.923Z,1025.56
2017-03-14T13:40:56.957Z,1025.6
2017-03-14T13:41:56.990Z,1025.61
2017-03-14T13:42:57.023Z,1025.58
2017-03-14T13:43:57.053Z,1025.58
2017-03-14T13:44:57.086Z,1025.62
2017-03-14T13:45:57.112Z,1025.6
2017-03-14T13:46:57.145Z,1025.61
2017-03-14T13:47:57.179Z,1025.55
2017-03-14T13:48:57.214Z,1025.55
2017-03-14T13:49:57.243Z,1025.57
2017-03-14T13:50:57.276Z,1025.58
2017-03-14T13:51:57.303Z,1025.57
2017-03-14T13:52:57.339Z,1025.56
2017-03-14T13:53:57.372Z,1025.58
2017-03-14T13:54:57.396Z,1025.54
2017-03-14T13:55:57.430Z,1025.57
2017-03-14T13:56:57.466Z,1025.55
2017-03-14T13:57:57.493Z,1025.53
2017-03-14T13:58:57.526Z,1025.52
2017-03-14T13:59:57.558Z,1025.55
2017-03-14T14:00:57.588Z,1025.52
2017-03-14T14:01:57.621Z,1025.48
2017-03-14T14:02:57.651Z,1025.51
2017-03-14T14:03:57.686Z,1025.48
2017-03-14T14:04:57.718Z,1025.48
2017-03-14T14:05:57.749Z,1025.36
2017-03-14T14:06:57.781Z,1025.37
2017-03-14T14:07:57.811Z,1025.37
2017-03-14T14:08:57.842Z,1025.34
2017-03-14T14:09:57.875Z,1025.35
2017-03-14T14:10:57.904Z,1025.35
2017-03-14T14:11:57.937Z,1025.37
2017-03-14T14:12:57.965Z,1025.35
2017-03-14T14:13:57.984Z,1025.37
2017-03-14T14:14:58.029Z,1025.37
2017-03-14T14:15:58.066Z,1025.3
2017-03-14T14:16:58.092Z,1025.34
2017-03-14T14:17:58.123Z,1025.34
2017-03-14T14:18:58.146Z,1025.29
2017-03-14T14:19:58.192Z,1025.27
2017-03-14T14:20:58.219Z,1025.25
2017-03-14T14:21:58.256Z,1025.24
2017-03-14T14:22:58.284Z,1025.24
2017-03-14T14:23:58.317Z,1025.25
2017-03-14T14:24:58.345Z,1025.23
2017-03-14T14:25:58.380Z,1025.33
2017-03-14T14:26:58.410Z,1025.27
2017-03-14T14:27:58.446Z,1025.25
2017-03-14T14:28:58.476Z,1025.3
2017-03-14T14:29:58.507Z,1025.27
2017-03-14T14:30:58.542Z,1025.3
2017-03-14T14:31:58.575Z,1025.33
2017-03-14T14:32:58.604Z,1025.3
2017-03-14T14:33:58.638Z,1025.28
2017-03-14T14:34:58.661Z,1025.24
2017-03-14T14:35:58.685Z,1025.23
2017-03-14T14:36:58.733Z,1025.21
2017-03-14T14:37:58.760Z,1025.2
2017-03-14T14:38:58.794Z,1025.22
2017-03-14T14:39:58.827Z,1025.27
2017-03-14T14:40:58.858Z,1025.23
2017-03-14T14:41:58.891Z,1025.2
2017-03-14T14:42:58.921Z,1025.2
2017-03-14T14:43:58.956Z,1025.15
2017-03-14T14:44:58.990Z,1025.14
2017-03-14T14:45:59.018Z,1025.15
2017-03-14T14:46:59.050Z,1025.14
2017-03-14T14:47:59.082Z,1025.16
2017-03-14T14:48:59.110Z,1025.16
2017-03-14T14:49:59.141Z,1025.17
2017-03-14T14:50:59.178Z,1025.12
2017-03-14T14:51:59.211Z,1025.09
2017-03-14T14:52:59.239Z,1025.12
2017-03-14T14:53:59.272Z,1025.04
2017-03-14T14:54:59.304Z,1025.06
2017-03-14T14:55:59.339Z,1025.05
2017-03-14T14:56:59.367Z,1025.04
2017-03-14T14:57:59.381Z,1025.07
2017-03-14T14:58:59.429Z,1025.07
2017-03-14T14:59:59.461Z,1025.03
2017-03-14T15:00:59.492Z,1025.08
2017-03-14T15:01:59.525Z,1025.06
2017-03-14T15:02:59.556Z,1025.08
2017-03-14T15:03:59.573Z,1025.04
2017-03-14T15:04:59.621Z,1025.03
2017-03-14T15:05:59.649Z,1024.98
2017-03-14T15:06:59.685Z,1025.01
2017-03-14T15:07:59.712Z,1024.97
2017-03-14T15:08:59.744Z,1024.93
2017-03-14T15:09:59.777Z,1024.88
2017-03-14T15:10:59.807Z,1024.9
2017-03-14T15:11:59.839Z,1024.93
2017-03-14T15:12:59.874Z,1024.97
2017-03-14T15:13:59.903Z,1024.87
2017-03-14T15:14:59.937Z,1024.93
2017-03-14T15:15:59.965Z,1024.84
2017-03-14T15:17:00.011Z,1024.84
2017-03-14T15:18:00.026Z,1024.86
2017-03-14T15:19:00.059Z,1024.87
2017-03-14T15:20:00.089Z,1024.82
2017-03-14T15:21:00.124Z,1024.74
2017-03-14T15:22:00.155Z,1024.73
2017-03-14T15:23:00.186Z,1024.7
2017-03-14T15:24:00.232Z,1024.69
2017-03-14T15:25:00.285Z,1024.66
2017-03-14T15:26:00.282Z,1024.71
2017-03-14T15:27:00.324Z,1024.69
2017-03-14T15:28:00.351Z,1024.69
2017-03-14T15:29:00.366Z,1024.64
2017-03-14T15:30:00.419Z,1024.63
2017-03-14T15:31:00.439Z,1024.64
2017-03-14T15:32:00.473Z,1024.61
2017-03-14T15:33:00.502Z,1024.59
2017-03-14T15:34:00.535Z,1024.57
2017-03-14T15:35:00.566Z,1024.54
2017-03-14T15:36:00.593Z,1024.53
2017-03-14T15:37:00.628Z,1024.49
2017-03-14T15:38:00.659Z,1024.44
2017-03-14T15:39:00.690Z,1024.45
2017-03-14T15:40:00.720Z,1024.43
2017-03-14T15:41:00.752Z,1024.42
2017-03-14T15:42:00.789Z,1024.4
2017-03-14T15:43:00.817Z,1024.42
2017-03-14T15:44:00.838Z,1024.36
2017-03-14T15:45:00.878Z,1024.34
2017-03-14T15:46:00.910Z,1024.34
2017-03-14T15:47:00.947Z,1024.33
2017-03-14T15:48:00.974Z,1024.3
2017-03-14T15:49:01.009Z,1024.29
2017-03-14T15:50:01.024Z,1024.35
2017-03-14T15:51:01.066Z,1024.26
2017-03-14T15:52:01.096Z,1024.3
2017-03-14T15:53:01.129Z,1024.26
2017-03-14T15:54:01.161Z,1024.32
2017-03-14T15:55:01.193Z,1024.28
2017-03-14T15:56:01.237Z,1024.31
2017-03-14T15:57:01.257Z,1024.28
2017-03-14T15:58:01.286Z,1024.34
2017-03-14T15:59:01.320Z,1024.35
2017-03-14T16:00:01.334Z,1024.34
2017-03-14T16:01:01.381Z,1024.39
2017-03-14T16:02:01.410Z,1024.44
2017-03-14T16:03:01.442Z,1024.38
2017-03-14T16:04:01.477Z,1024.42
2017-03-14T16:05:01.507Z,1024.46
2017-03-14T16:06:01.539Z,1024.52
2017-03-14T16:07:01.568Z,1024.55
2017-03-14T16:08:01.599Z,1024.51
2017-03-14T16:09:01.633Z,1024.55
2017-03-14T16:10:01.665Z,1024.59
2017-03-14T16:11:01.693Z,1024.59
2017-03-14T16:12:01.721Z,1024.58
2017-03-14T16:13:01.737Z,1024.55
2017-03-14T16:14:01.782Z,1024.56
2017-03-14T16:15:01.817Z,1024.55
2017-03-14T16:16:01.846Z,1024.58
2017-03-14T16:17:01.877Z,1024.57
2017-03-14T16:18:01.909Z,1024.6
2017-03-14T16:19:01.940Z,1024.62
2017-03-14T16:20:01.971Z,1024.62
2017-03-14T16:21:02.002Z,1024.58
2017-03-14T16:22:02.032Z,1024.6
2017-03-14T16:23:02.062Z,1024.54
2017-03-14T16:24:02.092Z,1024.55
2017-03-14T16:25:02.121Z,1024.5
2017-03-14T16:26:02.143Z,1024.51
2017-03-14T16:27:02.183Z,1024.53
2017-03-14T16:28:02.216Z,1024.55
2017-03-14T16:29:02.246Z,1024.57
2017-03-14T16:30:02.277Z,1024.58
2017-03-14T16:31:02.306Z,1024.59
2017-03-14T16:32:02.337Z,1024.65
2017-03-14T16:33:02.366Z,1024.68
2017-03-14T16:34:02.401Z,1024.69
2017-03-14T16:35:02.430Z,1024.73
2017-03-14T16:36:02.458Z,1024.71
2017-03-14T16:37:02.494Z,1024.69
2017-03-14T16:38:02.521Z,1024.67
2017-03-14T16:39:02.557Z,1024.6
2017-03-14T16:40:02.579Z,1024.58
2017-03-14T16:41:02.616Z,1024.55
2017-03-14T16:42:02.644Z,1024.47
2017-03-14T16:43:02.675Z,1024.54
2017-03-14T16:44:02.703Z,1024.63
2017-03-14T16:45:02.734Z,1024.61
2017-03-14T16:46:02.764Z,1024.67
2017-03-14T16:47:02.793Z,1024.63
2017-03-14T16:48:02.824Z,1024.64
2017-03-14T16:49:02.841Z,1024.7
2017-03-14T16:50:02.885Z,1024.71
2017-03-14T16:51:02.915Z,1024.69
2017-03-14T16:52:02.945Z,1024.7
2017-03-14T16:53:02.976Z,1024.68
2017-03-14T16:54:03.004Z,1024.67
2017-03-14T16:55:03.041Z,1024.66
2017-03-14T16:56:03.064Z,1024.66
2017-03-14T16:57:03.094Z,1024.67
2017-03-14T16:58:03.124Z,1024.64
2017-03-14T16:59:03.151Z,1024.71
2017-03-14T17:00:03.192Z,1024.71
2017-03-14T17:01:03.219Z,1024.63
2017-03-14T17:02:03.246Z,1024.69
2017-03-14T17:03:03.286Z,1024.67
2017-03-14T17:04:03.306Z,1024.72
2017-03-14T17:05:03.338Z,1024.79
2017-03-14T17:06:03.371Z,1024.83
2017-03-14T17:07:03.398Z,1024.85
2017-03-14T17:08:03.431Z,1024.91
2017-03-14T17:09:03.459Z,1024.89
2017-03-14T17:10:03.488Z,1024.87
2017-03-14T17:11:03.519Z,1024.88
2017-03-14T17:12:03.544Z,1024.89
2017-03-14T17:13:03.579Z,1024.83
2017-03-14T17:14:03.609Z,1024.85
2017-03-14T17:15:03.641Z,1024.81
2017-03-14T17:16:03.671Z,1024.79
2017-03-14T17:17:03.698Z,1024.81
2017-03-14T17:18:03.730Z,1024.82
2017-03-14T17:19:03.767Z,1024.81
2017-03-14T17:20:03.790Z,1024.78
2017-03-14T17:21:03.822Z,1024.81
2017-03-14T17:22:03.847Z,1024.86
2017-03-14T17:23:03.880Z,1024.84
2017-03-14T17:24:03.973Z,1024.85
2017-03-14T17:25:03.940Z,1024.84
2017-03-14T17:26:03.963Z,1024.84
2017-03-14T17:27:04.017Z,1024.79
2017-03-14T17:28:04.028Z,1024.85
2017-03-14T17:29:04.062Z,1024.87
2017-03-14T17:30:04.107Z,1024.92
2017-03-14T17:31:04.119Z,1024.96
2017-03-14T17:32:04.149Z,1024.92
2017-03-14T17:33:04.180Z,1024.92
2017-03-14T17:34:04.205Z,1024.95
2017-03-14T17:35:04.262Z,1024.94
2017-03-14T17:36:04.269Z,1024.96
2017-03-14T17:37:04.296Z,1024.98
2017-03-14T17:38:04.332Z,1025.01
2017-03-14T17:39:04.360Z,1025.04
2017-03-14T17:40:04.414Z,1025.05
2017-03-14T17:41:04.414Z,1025.03
2017-03-14T17:42:04.445Z,1025
2017-03-14T17:43:04.476Z,1025.04
2017-03-14T17:44:04.507Z,1024.99
2017-03-14T17:45:04.536Z,1025.01
2017-03-14T17:46:04.567Z,1024.99
2017-03-14T17:47:04.599Z,1025.05
2017-03-14T17:48:04.629Z,1025.04
2017-03-14T17:49:04.657Z,1025.07
2017-03-14T17:50:04.685Z,1025.04
2017-03-14T17:51:04.718Z,1025.05
2017-03-14T17:52:04.745Z,1025.01
2017-03-14T17:53:04.774Z,1025.01
